Time;durP1;ratioP1;P1;durP2;ratioP2;P2;SDS_P1;SDS_P2;PMS_P1;PMS_P2;Temp;Humidity;BMP_temperature;BMP_pressure;BME280_temperature;BME280_humidity;BME280_pressure;Samples;Min_cycle;Max_cycle;Signal;HPM_P1;HPM_P2
2022/09/12 00:00:10;;;;;;;5.63;3.60;;;17.10;99.80;;;;;;5032941;28;20025;-76
2022/09/12 00:02:35;;;;;;;5.25;3.35;;;17.10;99.80;;;;;;5038360;28;20033;-76
2022/09/12 00:05:01;;;;;;;4.50;3.50;;;17.10;99.90;;;;;;5033839;28;20044;-76
2022/09/12 00:07:27;;;;;;;5.88;3.60;;;17.00;99.90;;;;;;5042141;28;20044;-76
2022/09/12 00:09:52;;;;;;;4.68;3.17;;;17.00;99.90;;;;;;5032832;28;20029;-75
2022/09/12 00:12:18;;;;;;;4.95;3.67;;;17.00;99.90;;;;;;5016132;28;20026;-76
2022/09/12 00:14:43;;;;;;;5.88;3.00;;;16.90;99.90;;;;;;5017603;28;20074;-76
2022/09/12 00:17:09;;;;;;;4.72;3.10;;;16.90;99.90;;;;;;5033138;28;20033;-75
2022/09/12 00:19:35;;;;;;;4.35;3.03;;;17.00;99.90;;;;;;5033977;28;20021;-75
2022/09/12 00:22:00;;;;;;;4.47;2.92;;;16.90;99.90;;;;;;5031393;28;20530;-75
2022/09/12 00:24:26;;;;;;;5.10;3.03;;;16.90;99.90;;;;;;5031751;28;20034;-74
2022/09/12 00:26:52;;;;;;;4.15;3.15;;;16.90;99.90;;;;;;5031760;28;20388;-75
2022/09/12 00:29:20;;;;;;;4.75;2.90;;;16.90;99.90;;;;;;5033308;28;20084;-75
2022/09/12 00:31:46;;;;;;;6.45;3.30;;;16.80;99.90;;;;;;5032761;28;20032;-75
2022/09/12 00:34:12;;;;;;;4.43;3.03;;;16.80;99.90;;;;;;5032302;28;20381;-75
2022/09/12 00:36:39;;;;;;;4.50;3.28;;;16.80;99.90;;;;;;5031204;28;20033;-76
2022/09/12 00:39:05;;;;;;;3.97;2.90;;;16.70;99.90;;;;;;5032284;28;20105;-76
2022/09/12 00:41:33;;;;;;;3.40;2.90;;;16.70;99.90;;;;;;5032226;28;20052;-76
2022/09/12 00:44:03;;;;;;;4.57;3.00;;;16.70;99.90;;;;;;5029797;28;20029;-76
2022/09/12 00:46:40;;;;;;;5.25;3.03;;;16.70;99.90;;;;;;5022302;28;20052;-76
2022/09/12 00:49:14;;;;;;;5.97;3.13;;;16.60;99.90;;;;;;5020597;28;20037;-76
2022/09/12 00:52:08;;;;;;;3.47;2.47;;;16.60;99.90;;;;;;5031489;28;20041;-73
2022/09/12 00:54:46;;;;;;;6.22;3.50;;;16.70;99.90;;;;;;5027777;28;20037;-74
2022/09/12 00:57:14;;;;;;;4.00;2.92;;;16.60;99.90;;;;;;5030353;28;20033;-73
2022/09/12 00:59:45;;;;;;;4.15;2.80;;;16.50;99.90;;;;;;5019662;28;20041;-73
2022/09/12 01:02:11;;;;;;;4.88;2.67;;;16.50;99.90;;;;;;5018407;28;20029;-73
2022/09/12 01:04:39;;;;;;;4.63;2.97;;;16.50;99.90;;;;;;5031245;28;20033;-73
2022/09/12 01:07:06;;;;;;;4.18;3.00;;;16.50;99.90;;;;;;5029530;28;20044;-73
2022/09/12 01:09:32;;;;;;;5.32;3.00;;;16.50;99.90;;;;;;5030514;28;20033;-73
2022/09/12 01:12:00;;;;;;;4.65;2.83;;;16.40;99.90;;;;;;5030568;28;20561;-74
2022/09/12 01:14:25;;;;;;;3.78;2.55;;;16.50;99.90;;;;;;5012303;28;20030;-73
2022/09/12 01:16:51;;;;;;;3.50;2.70;;;16.40;99.90;;;;;;5027185;28;20380;-73
2022/09/12 01:19:56;;;;;;;4.57;2.88;;;16.40;99.90;;;;;;5030097;28;20065;-73
2022/09/12 01:22:33;;;;;;;6.20;3.13;;;16.40;99.90;;;;;;5029317;28;20507;-73
2022/09/12 01:25:28;;;;;;;3.55;2.95;;;16.40;99.90;;;;;;5031872;28;20358;-72
2022/09/12 01:28:31;;;;;;;4.07;2.78;;;16.30;99.90;;;;;;5030972;28;20037;-73
2022/09/12 01:31:11;;;;;;;3.70;2.38;;;16.30;99.90;;;;;;5009663;28;20395;-73
2022/09/12 01:33:49;;;;;;;3.47;2.42;;;16.20;99.90;;;;;;5030039;28;20124;-73
2022/09/12 01:36:23;;;;;;;4.50;2.72;;;16.20;99.90;;;;;;5026804;28;20453;-73
2022/09/12 01:38:58;;;;;;;3.47;2.28;;;16.20;99.90;;;;;;5012133;28;20037;-73
2022/09/12 01:41:49;;;;;;;6.22;3.25;;;16.20;99.90;;;;;;5033893;28;20471;-73
2022/09/12 01:44:46;;;;;;;4.15;2.72;;;16.20;99.90;;;;;;5032821;28;20064;-72
2022/09/12 01:47:39;;;;;;;4.47;2.80;;;16.20;99.90;;;;;;5031384;28;20377;-72
2022/09/12 01:50:11;;;;;;;3.97;3.08;;;16.10;99.90;;;;;;5031040;28;20037;-73
2022/09/12 01:52:48;;;;;;;7.13;3.08;;;16.10;99.90;;;;;;5030617;28;20423;-73
2022/09/12 01:55:39;;;;;;;3.70;3.00;;;16.10;99.90;;;;;;5020269;28;20361;-73
2022/09/12 01:58:05;;;;;;;4.80;2.97;;;16.10;99.90;;;;;;5014760;28;20377;-74
2022/09/12 02:00:37;;;;;;;5.13;3.00;;;16.10;99.90;;;;;;5024326;28;20034;-74
2022/09/12 02:03:32;;;;;;;4.60;3.10;;;16.10;99.90;;;;;;5024067;28;20542;-73
2022/09/12 02:06:30;;;;;;;6.03;3.35;;;16.10;99.90;;;;;;5025793;28;20073;-72
2022/09/12 02:09:09;;;;;;;4.10;3.00;;;16.10;99.90;;;;;;5029907;28;20492;-74
2022/09/12 02:11:39;;;;;;;4.25;2.72;;;16.10;99.90;;;;;;5033263;28;20306;-73
2022/09/12 02:14:20;;;;;;;4.93;3.38;;;16.00;99.90;;;;;;5029180;28;20483;-73
2022/09/12 02:16:54;;;;;;;5.20;3.08;;;16.00;99.90;;;;;;5029541;28;20566;-73
2022/09/12 02:19:23;;;;;;;5.97;3.03;;;16.00;99.90;;;;;;5035643;28;20412;-75
2022/09/12 02:21:52;;;;;;;5.15;3.22;;;16.00;99.90;;;;;;5031295;28;20098;-75
2022/09/12 02:24:21;;;;;;;5.55;2.85;;;16.00;99.90;;;;;;5029980;28;20076;-75
2022/09/12 02:26:51;;;;;;;3.78;2.63;;;16.00;99.90;;;;;;5017596;28;20033;-74
2022/09/12 02:29:17;;;;;;;4.65;2.78;;;16.00;99.90;;;;;;5018634;28;20535;-75
2022/09/12 02:31:48;;;;;;;7.45;3.83;;;16.00;99.90;;;;;;5020000;28;20034;-74
2022/09/12 02:34:42;;;;;;;4.53;3.03;;;16.00;99.90;;;;;;5030821;28;20104;-75
2022/09/12 02:37:24;;;;;;;4.35;2.70;;;16.00;99.90;;;;;;5018338;28;20040;-75
2022/09/12 02:39:54;;;;;;;4.90;3.05;;;16.00;99.90;;;;;;5048408;28;20037;-75
2022/09/12 02:42:19;;;;;;;4.93;3.80;;;16.00;99.90;;;;;;5016236;28;20584;-75
2022/09/12 02:44:45;;;;;;;4.97;2.92;;;16.00;99.90;;;;;;5030540;28;20133;-75
2022/09/12 02:47:36;;;;;;;5.13;3.28;;;16.00;99.90;;;;;;5030268;28;20052;-75
2022/09/12 02:50:04;;;;;;;5.32;3.30;;;16.00;99.90;;;;;;5033056;28;20041;-75
2022/09/12 02:52:30;;;;;;;4.57;3.05;;;15.90;99.90;;;;;;5035307;28;20431;-75
2022/09/12 02:54:57;;;;;;;4.57;3.20;;;15.90;99.90;;;;;;5031088;28;20028;-76
2022/09/12 02:57:23;;;;;;;6.28;3.17;;;15.90;99.90;;;;;;5035470;28;20041;-76
2022/09/12 02:59:52;;;;;;;4.25;3.00;;;15.90;99.90;;;;;;5033843;28;20040;-76
2022/09/12 03:02:49;;;;;;;4.78;3.15;;;15.90;99.90;;;;;;5029588;28;20057;-76
2022/09/12 03:05:20;;;;;;;5.22;3.20;;;15.90;99.90;;;;;;4987974;28;20526;-76
2022/09/12 03:07:58;;;;;;;5.10;3.05;;;15.90;99.90;;;;;;5026090;28;20429;-76
2022/09/12 03:10:33;;;;;;;8.95;3.92;;;15.90;99.90;;;;;;5033717;28;20029;-76
2022/09/12 03:13:22;;;;;;;4.43;3.22;;;15.80;99.90;;;;;;5034938;28;20030;-76
2022/09/12 03:16:07;;;;;;;4.53;3.25;;;15.80;99.90;;;;;;5030011;28;20032;-76
2022/09/12 03:18:54;;;;;;;5.78;4.40;;;15.90;99.90;;;;;;5028951;28;20358;-76
2022/09/12 03:21:20;;;;;;;5.13;3.15;;;15.80;99.90;;;;;;5035663;28;20042;-75
2022/09/12 03:23:59;;;;;;;6.22;4.28;;;15.80;99.90;;;;;;5013798;28;20034;-76
2022/09/12 03:26:41;;;;;;;5.80;3.40;;;15.80;99.90;;;;;;5032308;28;20037;-77
2022/09/12 03:29:08;;;;;;;5.50;3.58;;;15.80;99.90;;;;;;5033891;28;20531;-76
2022/09/12 03:31:33;;;;;;;4.70;3.40;;;15.80;99.90;;;;;;5026504;28;20038;-75
2022/09/12 03:33:59;;;;;;;4.60;3.20;;;15.80;99.90;;;;;;5026824;28;20022;-75
2022/09/12 03:36:27;;;;;;;6.32;3.50;;;15.70;99.90;;;;;;5044308;28;20029;-75
2022/09/12 03:38:53;;;;;;;5.15;3.50;;;15.70;99.90;;;;;;5028842;28;20026;-74
2022/09/12 03:41:18;;;;;;;5.80;3.80;;;15.70;99.90;;;;;;5033199;28;20432;-75
2022/09/12 03:43:45;;;;;;;5.10;3.72;;;15.70;99.90;;;;;;5028892;28;20030;-75
2022/09/12 03:46:10;;;;;;;6.03;3.60;;;15.70;99.90;;;;;;5033087;28;20037;-76
2022/09/12 03:48:36;;;;;;;5.60;3.90;;;15.70;99.90;;;;;;5019627;28;20029;-75
2022/09/12 03:51:04;;;;;;;5.88;3.65;;;15.60;99.90;;;;;;5041351;28;20030;-76
2022/09/12 03:53:30;;;;;;;6.10;3.90;;;15.60;99.90;;;;;;5039309;28;20033;-75
2022/09/12 03:55:56;;;;;;;8.77;3.97;;;15.60;99.90;;;;;;5031692;28;20100;-75
2022/09/12 03:58:23;;;;;;;6.10;3.95;;;15.60;99.90;;;;;;5033296;28;20056;-75
2022/09/12 04:00:48;;;;;;;5.55;3.78;;;15.60;99.90;;;;;;5025021;28;20029;-75
2022/09/12 04:03:14;;;;;;;6.28;4.25;;;15.60;99.90;;;;;;5032949;28;20082;-74
2022/09/12 04:05:39;;;;;;;6.22;3.95;;;15.50;99.90;;;;;;5033051;28;20114;-75
2022/09/12 04:08:05;;;;;;;6.85;4.38;;;15.50;99.90;;;;;;5021088;28;20026;-75
2022/09/12 04:10:31;;;;;;;6.57;4.28;;;15.50;99.90;;;;;;5019147;28;20464;-75
2022/09/12 04:12:57;;;;;;;6.20;4.32;;;15.50;99.90;;;;;;5040273;28;20021;-75
2022/09/12 04:15:23;;;;;;;5.82;4.22;;;15.50;99.90;;;;;;5027216;28;20124;-75
2022/09/12 04:17:48;;;;;;;6.05;3.97;;;15.50;99.90;;;;;;5033427;28;20435;-74
2022/09/12 04:20:14;;;;;;;7.22;4.43;;;15.50;99.90;;;;;;5031749;28;20084;-75
2022/09/12 04:22:39;;;;;;;6.68;4.10;;;15.40;99.90;;;;;;5032035;28;20422;-75
2022/09/12 04:25:06;;;;;;;6.18;3.83;;;15.50;99.90;;;;;;5002693;28;20061;-74
2022/09/12 04:27:32;;;;;;;4.70;3.70;;;15.50;99.90;;;;;;5031450;28;20021;-75
2022/09/12 04:30:00;;;;;;;5.18;3.80;;;15.40;99.90;;;;;;5027410;28;20054;-75
2022/09/12 04:32:25;;;;;;;6.15;4.18;;;15.40;99.90;;;;;;5035704;28;20029;-74
2022/09/12 04:34:51;;;;;;;5.93;3.85;;;15.40;99.90;;;;;;5026788;28;20025;-74
2022/09/12 04:37:17;;;;;;;5.65;3.90;;;15.40;99.90;;;;;;5018820;28;20091;-74
2022/09/12 04:39:42;;;;;;;5.72;3.85;;;15.40;99.90;;;;;;5031573;28;20370;-74
2022/09/12 04:42:08;;;;;;;5.60;4.07;;;15.40;99.90;;;;;;5033332;28;20026;-75
2022/09/12 04:44:34;;;;;;;6.03;4.13;;;15.40;99.90;;;;;;5030706;28;20094;-74
2022/09/12 04:46:59;;;;;;;6.18;4.55;;;15.40;99.90;;;;;;5032057;28;20056;-74
2022/09/12 04:49:25;;;;;;;8.07;4.63;;;15.40;99.90;;;;;;5032346;28;20034;-74
2022/09/12 04:51:53;;;;;;;6.97;4.68;;;15.40;99.90;;;;;;5022041;28;21501;-74
2022/09/12 04:54:19;;;;;;;5.50;4.13;;;15.40;99.90;;;;;;5031429;28;20033;-73
2022/09/12 04:56:47;;;;;;;7.07;4.72;;;15.40;99.90;;;;;;5021601;28;20032;-73
2022/09/12 04:59:15;;;;;;;6.05;4.10;;;15.40;99.90;;;;;;5032823;28;20381;-74
2022/09/12 05:01:41;;;;;;;6.18;5.18;;;15.40;99.90;;;;;;5027089;28;20033;-74
2022/09/12 05:04:08;;;;;;;5.80;4.15;;;15.40;99.90;;;;;;5011182;28;20159;-74
2022/09/12 05:06:36;;;;;;;5.00;4.30;;;15.40;99.90;;;;;;5030247;28;20049;-74
2022/09/12 05:09:05;;;;;;;8.20;5.00;;;15.50;99.90;;;;;;5017030;28;20029;-74
2022/09/12 05:11:33;;;;;;;9.05;4.47;;;15.50;99.90;;;;;;5032767;28;20133;-74
2022/09/12 05:13:59;;;;;;;6.00;4.60;;;15.50;99.90;;;;;;5031039;28;20029;-75
2022/09/12 05:16:26;;;;;;;6.32;4.22;;;15.50;99.90;;;;;;5025558;28;20079;-76
2022/09/12 05:18:52;;;;;;;7.65;4.25;;;15.50;99.90;;;;;;5005860;28;20025;-75
2022/09/12 05:21:20;;;;;;;6.15;4.53;;;15.50;99.90;;;;;;5017589;28;20017;-77
2022/09/12 05:23:49;;;;;;;6.55;4.00;;;15.60;99.90;;;;;;5029268;28;20057;-76
2022/09/12 05:26:15;;;;;;;8.48;4.55;;;15.50;99.90;;;;;;5024465;28;20042;-76
2022/09/12 05:28:42;;;;;;;5.57;3.80;;;15.60;99.90;;;;;;5029952;28;20099;-75
2022/09/12 05:31:12;;;;;;;6.57;4.43;;;15.60;99.90;;;;;;5030129;28;20033;-75
2022/09/12 05:33:39;;;;;;;6.18;4.85;;;15.60;99.90;;;;;;5024194;28;20116;-74
2022/09/12 05:36:09;;;;;;;6.50;4.68;;;15.70;99.90;;;;;;5023346;28;20484;-73
2022/09/12 05:38:36;;;;;;;8.30;5.05;;;15.70;99.90;;;;;;5022794;28;20029;-72
2022/09/12 05:41:07;;;;;;;6.10;4.63;;;15.70;99.90;;;;;;5023645;28;20033;-73
2022/09/12 05:43:33;;;;;;;9.38;4.63;;;15.70;99.90;;;;;;5039474;28;20026;-73
2022/09/12 05:46:04;;;;;;;7.35;5.15;;;15.80;99.90;;;;;;5039388;28;20037;-76
2022/09/12 05:48:29;;;;;;;9.20;5.70;;;15.80;99.90;;;;;;5037462;28;20508;-76
2022/09/12 05:51:00;;;;;;;9.32;4.75;;;15.80;99.90;;;;;;5039265;28;20117;-79
2022/09/12 05:53:27;;;;;;;7.00;5.20;;;15.90;99.90;;;;;;5019103;28;20469;-76
2022/09/12 05:56:07;;;;;;;7.15;5.15;;;15.80;99.90;;;;;;5031465;28;20083;-76
2022/09/12 05:58:34;;;;;;;8.32;4.47;;;15.90;99.90;;;;;;5006395;28;20037;-75
2022/09/12 06:01:02;;;;;;;7.60;5.45;;;15.90;99.90;;;;;;5024449;28;20033;-76
2022/09/12 06:03:28;;;;;;;7.88;5.32;;;15.90;99.90;;;;;;5018428;28;20022;-76
2022/09/12 06:05:54;;;;;;;8.88;5.43;;;15.90;99.90;;;;;;5016598;28;20322;-76
2022/09/12 06:08:19;;;;;;;8.20;5.22;;;16.00;99.90;;;;;;5005904;28;20017;-72
2022/09/12 06:10:45;;;;;;;10.00;5.20;;;16.00;99.90;;;;;;5016476;28;20026;-75
2022/09/12 06:13:10;;;;;;;8.45;5.10;;;16.00;99.90;;;;;;5023751;28;20034;-76
2022/09/12 06:15:36;;;;;;;9.68;5.80;;;16.10;99.90;;;;;;5014141;28;20037;-74
2022/09/12 06:18:02;;;;;;;8.25;5.80;;;16.10;99.90;;;;;;5011391;28;20481;-73
2022/09/12 06:20:27;;;;;;;6.88;4.80;;;16.10;99.90;;;;;;5022824;28;20029;-72
2022/09/12 06:22:53;;;;;;;10.55;6.38;;;16.20;99.90;;;;;;5008582;28;20047;-72
2022/09/12 06:25:18;;;;;;;10.48;6.18;;;16.20;99.90;;;;;;5012636;28;20684;-72
2022/09/12 06:27:46;;;;;;;12.27;6.20;;;16.20;99.90;;;;;;5033020;28;20083;-72
2022/09/12 06:30:12;;;;;;;11.77;6.28;;;16.30;99.90;;;;;;5021404;28;20048;-70
2022/09/12 06:32:37;;;;;;;10.40;5.82;;;16.30;99.90;;;;;;5027944;28;20026;-70
2022/09/12 06:35:04;;;;;;;12.88;6.38;;;16.40;99.90;;;;;;5027250;28;20017;-71
2022/09/12 06:37:31;;;;;;;9.98;6.03;;;16.40;99.90;;;;;;5026077;28;20041;-71
2022/09/12 06:39:56;;;;;;;9.82;5.47;;;16.50;99.90;;;;;;5018515;28;20648;-70
2022/09/12 06:42:22;;;;;;;8.68;6.00;;;16.60;99.90;;;;;;5030437;28;20079;-71
2022/09/12 06:44:49;;;;;;;7.63;5.45;;;16.50;99.90;;;;;;5020106;28;20033;-71
2022/09/12 06:47:14;;;;;;;9.57;6.05;;;16.60;99.90;;;;;;5010926;28;20036;-70
2022/09/12 06:49:40;;;;;;;7.43;5.97;;;16.60;99.90;;;;;;5025332;28;20033;-70
2022/09/12 06:52:06;;;;;;;9.35;6.53;;;16.70;99.90;;;;;;5021742;28;20026;-71
2022/09/12 06:54:31;;;;;;;10.10;6.07;;;16.60;99.90;;;;;;5017763;28;20448;-71
2022/09/12 06:56:57;;;;;;;8.90;5.75;;;16.70;99.90;;;;;;5026232;28;20038;-71
2022/09/12 06:59:22;;;;;;;7.78;5.68;;;16.80;99.90;;;;;;5029124;28;20316;-70
2022/09/12 07:01:48;;;;;;;12.07;6.80;;;16.80;99.90;;;;;;5027930;28;20155;-70
2022/09/12 07:04:19;;;;;;;11.77;6.50;;;16.90;99.90;;;;;;5032006;28;20075;-71
2022/09/12 07:06:45;;;;;;;10.98;7.10;;;16.90;99.90;;;;;;5023622;28;20025;-70
2022/09/12 07:09:16;;;;;;;8.00;6.10;;;17.00;99.90;;;;;;5031753;28;20018;-70
2022/09/12 07:11:43;;;;;;;13.43;6.07;;;17.00;99.90;;;;;;5034450;28;20037;-69
2022/09/12 07:14:12;;;;;;;8.40;6.05;;;17.10;99.90;;;;;;5031473;28;20132;-69
2022/09/12 07:16:38;;;;;;;7.70;6.05;;;17.10;99.90;;;;;;5033883;28;20034;-68
2022/09/12 07:19:05;;;;;;;6.45;4.97;;;17.10;99.90;;;;;;5038190;28;20044;-68
2022/09/12 07:21:31;;;;;;;6.45;5.00;;;17.10;99.90;;;;;;5030210;28;20481;-69
2022/09/12 07:23:57;;;;;;;7.45;5.10;;;17.20;99.90;;;;;;5033613;28;20399;-68
2022/09/12 07:26:24;;;;;;;8.10;5.85;;;17.20;99.90;;;;;;5029477;28;20033;-66
2022/09/12 07:28:54;;;;;;;14.55;6.18;;;17.20;99.90;;;;;;5032130;28;20069;-68
2022/09/12 07:31:22;;;;;;;8.02;4.72;;;17.20;99.90;;;;;;5032538;28;20024;-67
2022/09/12 07:33:49;;;;;;;6.88;5.00;;;17.30;99.90;;;;;;5033773;28;20021;-67
2022/09/12 07:36:17;;;;;;;5.38;4.10;;;17.20;99.90;;;;;;5031845;28;20481;-66
2022/09/12 07:38:43;;;;;;;6.97;4.75;;;17.30;99.90;;;;;;5020906;28;20114;-68
2022/09/12 07:41:13;;;;;;;9.35;4.72;;;17.30;99.90;;;;;;5030390;28;20040;-67
2022/09/12 07:43:39;;;;;;;8.05;4.68;;;17.40;99.90;;;;;;5026527;28;20033;-67
2022/09/12 07:46:05;;;;;;;18.30;7.45;;;17.30;99.90;;;;;;5022798;28;20314;-68
2022/09/12 07:48:30;;;;;;;8.25;5.00;;;17.40;99.90;;;;;;5016854;28;20038;-68
2022/09/12 07:50:58;;;;;;;7.90;5.20;;;17.40;99.90;;;;;;5021080;28;20041;-67
2022/09/12 07:53:24;;;;;;;8.85;5.20;;;17.40;99.90;;;;;;5028788;28;20155;-69
2022/09/12 07:55:54;;;;;;;5.95;3.80;;;17.50;99.90;;;;;;5025213;28;20047;-69
2022/09/12 07:58:20;;;;;;;6.75;4.70;;;17.60;99.90;;;;;;5030608;28;20065;-69
2022/09/12 08:00:46;;;;;;;12.70;6.80;;;17.60;99.90;;;;;;5017730;28;20029;-68
2022/09/12 08:03:12;;;;;;;4.97;3.67;;;17.70;99.90;;;;;;5019796;28;20031;-67
2022/09/12 08:05:37;;;;;;;65.13;24.77;;;17.70;99.90;;;;;;5032032;28;20033;-68
2022/09/12 08:08:03;;;;;;;10.25;6.20;;;17.80;99.90;;;;;;5039989;28;20371;-67
2022/09/12 08:10:28;;;;;;;6.40;3.80;;;17.90;99.90;;;;;;5010765;28;20033;-67
2022/09/12 08:12:54;;;;;;;16.23;8.43;;;17.90;99.90;;;;;;5031181;28;20036;-67
2022/09/12 08:15:19;;;;;;;7.82;4.32;;;17.90;99.90;;;;;;5026455;28;20035;-67
2022/09/12 08:17:45;;;;;;;5.97;3.50;;;18.00;99.90;;;;;;5033192;28;20031;-68
2022/09/12 08:20:11;;;;;;;7.40;3.65;;;18.00;99.90;;;;;;5006840;28;20418;-66
2022/09/12 08:22:37;;;;;;;7.15;2.95;;;18.00;99.90;;;;;;4976152;28;20080;-68
2022/09/12 08:25:03;;;;;;;5.35;2.67;;;18.10;99.90;;;;;;5028716;28;20480;-67
2022/09/12 08:27:28;;;;;;;6.80;3.10;;;18.20;99.80;;;;;;5031672;28;20029;-67
2022/09/12 08:29:54;;;;;;;4.80;2.90;;;18.20;99.40;;;;;;5029438;28;20481;-67
2022/09/12 08:32:20;;;;;;;4.88;3.40;;;18.20;99.20;;;;;;5014513;28;20026;-69
2022/09/12 08:34:45;;;;;;;5.13;3.30;;;18.30;99.20;;;;;;5019388;28;20026;-66
2022/09/12 08:37:11;;;;;;;5.32;2.63;;;18.40;99.10;;;;;;4997646;28;20033;-66
2022/09/12 08:39:36;;;;;;;3.70;2.55;;;18.50;99.30;;;;;;5017472;28;20128;-67
2022/09/12 08:42:04;;;;;;;4.55;3.13;;;18.50;99.30;;;;;;5030239;28;20033;-68
2022/09/12 08:44:45;;;;;;;5.35;2.80;;;18.60;99.00;;;;;;5029303;28;20030;-68
2022/09/12 08:47:30;;;;;;;7.07;2.90;;;18.70;99.00;;;;;;5031475;28;20025;-68
2022/09/12 08:50:11;;;;;;;3.75;2.47;;;18.70;98.70;;;;;;5020855;28;20037;-68
2022/09/12 08:53:01;;;;;;;7.32;3.30;;;18.80;98.40;;;;;;5030999;28;20034;-69
2022/09/12 08:55:32;;;;;;;3.50;2.58;;;18.80;98.20;;;;;;5029903;28;20037;-68
2022/09/12 08:58:00;;;;;;;4.15;2.70;;;18.80;98.20;;;;;;5012577;28;20079;-68
2022/09/12 09:00:56;;;;;;;3.45;2.65;;;18.90;98.20;;;;;;5029193;28;20217;-68
2022/09/12 09:04:00;;;;;;;3.85;2.45;;;18.90;98.20;;;;;;4994243;28;20071;-68
2022/09/12 09:06:47;;;;;;;3.53;2.10;;;19.00;97.90;;;;;;5026475;28;20048;-68
2022/09/12 09:09:30;;;;;;;3.28;2.08;;;18.90;97.60;;;;;;5016313;28;20030;-69
2022/09/12 09:12:05;;;;;;;3.22;2.13;;;18.90;97.40;;;;;;5023198;28;20030;-69
2022/09/12 09:14:47;;;;;;;3.97;2.40;;;18.90;97.50;;;;;;5029657;28;20040;-69
2022/09/12 09:17:36;;;;;;;8.27;2.75;;;19.00;97.80;;;;;;5013519;28;20108;-69
2022/09/12 09:20:04;;;;;;;3.30;2.15;;;19.10;97.70;;;;;;5030956;28;20025;-69
2022/09/12 09:22:43;;;;;;;4.82;2.40;;;19.10;97.20;;;;;;5022827;28;20041;-69
2022/09/12 09:25:41;;;;;;;3.67;2.10;;;19.20;97.10;;;;;;5022294;28;20485;-69
2022/09/12 09:28:17;;;;;;;3.38;2.03;;;19.30;97.00;;;;;;5023713;28;20136;-69
2022/09/12 09:30:45;;;;;;;3.05;1.92;;;19.30;96.40;;;;;;5024869;28;20038;-69
2022/09/12 09:33:22;;;;;;;3.45;1.70;;;19.30;96.50;;;;;;5012820;28;20761;-69
2022/09/12 09:36:05;;;;;;;5.32;2.00;;;19.30;96.40;;;;;;5026412;28;20060;-69
2022/09/12 09:38:39;;;;;;;4.45;2.00;;;19.40;96.40;;;;;;5022211;28;20477;-69
2022/09/12 09:41:19;;;;;;;3.63;1.83;;;19.50;96.50;;;;;;5027370;28;20112;-70
2022/09/12 09:43:45;;;;;;;3.17;1.98;;;19.50;96.10;;;;;;5003073;28;20037;-69
2022/09/12 09:46:12;;;;;;;5.40;2.50;;;19.60;95.90;;;;;;5027291;28;20037;-69
2022/09/12 09:48:43;;;;;;;4.65;2.28;;;19.70;96.20;;;;;;5030582;28;20043;-68
2022/09/12 09:51:10;;;;;;;4.03;2.25;;;19.80;95.80;;;;;;5026267;28;20029;-68
2022/09/12 09:53:54;;;;;;;4.35;1.75;;;19.90;95.90;;;;;;5039756;28;20052;-68
2022/09/12 09:56:38;;;;;;;3.53;2.13;;;20.00;95.10;;;;;;5026534;28;20025;-68
2022/09/12 09:59:08;;;;;;;1.92;1.40;;;20.00;94.40;;;;;;5026961;28;20036;-68
2022/09/12 10:01:33;;;;;;;2.42;1.67;;;20.00;94.50;;;;;;5032153;28;20163;-68
2022/09/12 10:03:59;;;;;;;3.08;1.55;;;20.10;94.70;;;;;;5011594;28;20587;-68
2022/09/12 10:06:31;;;;;;;4.82;1.40;;;20.20;94.50;;;;;;5018577;28;20033;-69
2022/09/12 10:09:13;;;;;;;2.78;1.55;;;20.30;94.80;;;;;;5012410;28;20037;-69
2022/09/12 10:11:39;;;;;;;6.13;1.70;;;20.40;94.60;;;;;;5026612;28;20037;-69
2022/09/12 10:14:26;;;;;;;2.88;1.70;;;20.50;94.40;;;;;;5021512;28;20017;-69
2022/09/12 10:16:52;;;;;;;2.63;1.70;;;20.60;94.40;;;;;;5015009;28;20037;-69
2022/09/12 10:19:35;;;;;;;3.47;1.90;;;20.70;94.20;;;;;;5040731;28;20021;-69
2022/09/12 10:22:02;;;;;;;3.38;2.10;;;20.70;93.50;;;;;;5013878;28;20184;-69
2022/09/12 10:24:38;;;;;;;2.50;1.80;;;20.80;93.60;;;;;;5016891;28;20026;-68
2022/09/12 10:27:15;;;;;;;2.67;2.03;;;20.80;93.40;;;;;;5013466;28;20121;-68
2022/09/12 10:30:00;;;;;;;2.80;1.70;;;20.80;93.10;;;;;;5027238;28;20366;-68
2022/09/12 10:32:34;;;;;;;3.30;1.40;;;20.80;92.90;;;;;;5030271;28;20046;-68
2022/09/12 10:35:17;;;;;;;;;;;20.80;93.00;;;;;;5031586;28;20038;-69
2022/09/12 10:38:03;;;;;;;3.45;1.88;;;20.90;93.60;;;;;;5015368;28;19987;-67
2022/09/12 10:40:33;;;;;;;5.07;1.65;;;20.90;93.10;;;;;;5033164;28;20147;-69
2022/09/12 10:43:01;;;;;;;4.05;2.10;;;20.90;92.60;;;;;;5030483;28;20103;-69
2022/09/12 10:45:29;;;;;;;3.33;1.58;;;20.90;92.50;;;;;;5029141;28;20041;-69
2022/09/12 10:48:00;;;;;;;4.10;2.20;;;20.90;92.50;;;;;;5029669;28;20052;-69
2022/09/12 10:50:26;;;;;;;4.00;2.20;;;20.90;92.40;;;;;;5033932;28;20033;-70
2022/09/12 10:52:53;;;;;;;4.50;2.15;;;20.90;92.30;;;;;;5030556;28;20021;-69
2022/09/12 10:55:24;;;;;;;4.80;1.98;;;20.90;92.30;;;;;;5027164;28;20026;-68
2022/09/12 10:58:07;;;;;;;5.07;2.22;;;20.90;92.40;;;;;;5033571;28;20034;-70
2022/09/12 11:00:38;;;;;;;3.80;2.00;;;20.90;92.50;;;;;;5031054;28;20034;-69
2022/09/12 11:03:33;;;;;;;3.40;2.10;;;20.90;92.00;;;;;;5032802;28;20065;-69
2022/09/12 11:06:00;;;;;;;4.30;1.88;;;20.90;91.90;;;;;;5019701;28;20506;-68
2022/09/12 11:09:04;;;;;;;5.10;2.30;;;20.90;92.10;;;;;;5020327;28;20033;-68
2022/09/12 11:11:42;;;;;;;2.90;2.20;;;20.90;92.00;;;;;;5031969;28;20121;-69
2022/09/12 11:14:35;;;;;;;4.88;3.17;;;20.90;91.90;;;;;;5032654;28;20025;-69
2022/09/12 11:17:15;;;;;;;5.55;2.22;;;20.90;92.10;;;;;;5032155;28;20083;-71
2022/09/12 11:20:28;;;;;;;4.57;2.20;;;20.90;91.40;;;;;;5030558;28;20036;-71
2022/09/12 11:22:54;;;;;;;4.50;2.10;;;20.90;91.40;;;;;;5020141;28;20094;-71
2022/09/12 11:25:47;;;;;;;3.28;2.40;;;20.90;91.20;;;;;;5019483;28;20575;-72
2022/09/12 11:28:36;;;;;;;4.57;2.00;;;20.90;91.10;;;;;;5029285;28;20025;-70
2022/09/12 11:31:16;;;;;;;4.90;2.40;;;21.10;91.10;;;;;;5022055;28;20071;-71
2022/09/12 11:33:49;;;;;;;4.43;2.17;;;21.30;91.60;;;;;;5020624;28;20083;-71
2022/09/12 11:36:29;;;;;;;4.00;2.55;;;21.40;91.60;;;;;;5027879;28;20128;-71
2022/09/12 11:39:14;;;;;;;3.17;1.88;;;21.60;91.60;;;;;;5013896;28;20121;-71
2022/09/12 11:41:41;;;;;;;;;;;21.70;91.60;;;;;;5028830;28;20022;-71
2022/09/12 11:44:17;;;;;;;3.10;1.55;;;21.90;92.10;;;;;;5025243;28;19919;-71
2022/09/12 11:46:43;;;;;;;2.95;1.95;;;22.00;90.80;;;;;;5018631;28;20092;-71
2022/09/12 11:49:12;;;;;;;3.60;1.75;;;22.00;90.80;;;;;;5014706;28;20030;-71
2022/09/12 11:52:05;;;;;;;2.72;1.70;;;22.10;90.80;;;;;;5024927;28;20037;-72
2022/09/12 11:54:46;;;;;;;6.05;2.13;;;22.20;90.80;;;;;;5022141;28;20599;-71
2022/09/12 11:57:24;;;;;;;4.68;3.15;;;22.30;90.60;;;;;;5027179;28;20121;-71
2022/09/12 12:00:02;;;;;;;3.38;1.95;;;22.40;90.60;;;;;;5020954;28;20036;-71
2022/09/12 12:02:32;;;;;;;3.80;2.17;;;22.50;89.40;;;;;;5025833;28;20033;-71
2022/09/12 12:05:21;;;;;;;3.30;1.65;;;22.50;89.10;;;;;;5013122;28;20029;-71
2022/09/12 12:07:59;;;;;;;2.67;1.50;;;22.40;87.50;;;;;;5031865;28;20044;-71
2022/09/12 12:10:42;;;;;;;3.83;1.92;;;22.50;87.80;;;;;;5019857;28;20432;-74
2022/09/12 12:13:27;;;;;;;2.83;1.83;;;22.50;88.40;;;;;;5028479;28;20038;-73
2022/09/12 12:15:59;;;;;;;2.88;1.70;;;22.60;88.30;;;;;;5023226;28;20034;-72
2022/09/12 12:18:30;;;;;;;3.38;1.80;;;22.60;87.50;;;;;;5032391;28;20083;-73
2022/09/12 12:21:14;;;;;;;2.40;1.67;;;22.70;88.40;;;;;;5024856;28;20049;-69
2022/09/12 12:24:00;;;;;;;2.80;1.70;;;22.70;88.50;;;;;;5022315;28;20033;-69
2022/09/12 12:26:38;;;;;;;2.97;1.80;;;22.70;87.80;;;;;;5024075;28;20084;-69
2022/09/12 12:29:09;;;;;;;2.70;1.73;;;22.70;87.60;;;;;;5031926;28;20076;-69
2022/09/12 12:32:03;;;;;;;3.80;1.50;;;22.80;87.00;;;;;;5028188;28;20040;-69
2022/09/12 12:34:38;;;;;;;2.40;1.30;;;22.80;87.10;;;;;;4995648;28;20107;-69
2022/09/12 12:37:22;;;;;;;3.10;1.50;;;22.70;86.80;;;;;;5018825;28;20061;-69
2022/09/12 12:39:52;;;;;;;2.10;1.23;;;22.70;86.30;;;;;;5022811;28;20358;-69
2022/09/12 12:42:36;;;;;;;2.30;1.60;;;22.60;85.10;;;;;;5021074;28;20032;-69
2022/09/12 12:45:07;;;;;;;3.95;1.48;;;22.50;85.20;;;;;;5015672;28;20802;-69
2022/09/12 12:47:46;;;;;;;2.90;1.48;;;22.50;84.70;;;;;;5027415;28;20029;-69
2022/09/12 12:50:15;;;;;;;1.85;1.45;;;22.40;85.10;;;;;;5023809;28;20467;-68
2022/09/12 12:53:02;;;;;;;2.38;1.45;;;22.30;84.80;;;;;;5029609;28;20099;-69
2022/09/12 12:55:57;;;;;;;3.08;1.40;;;22.30;85.90;;;;;;5027972;28;20384;-69
2022/09/12 12:58:36;;;;;;;6.15;1.52;;;22.30;85.60;;;;;;5001727;28;20180;-69
2022/09/12 13:01:18;;;;;;;4.93;1.60;;;22.40;85.40;;;;;;5023768;28;20483;-68
2022/09/12 13:03:53;;;;;;;2.30;1.60;;;22.30;84.30;;;;;;5024169;28;20026;-72
2022/09/12 13:06:34;;;;;;;2.47;1.30;;;22.30;84.30;;;;;;5024476;28;20374;-71
2022/09/12 13:09:20;;;;;;;2.55;1.33;;;22.30;84.60;;;;;;5029873;28;20380;-71
2022/09/12 13:11:46;;;;;;;4.80;1.40;;;22.30;84.30;;;;;;5024517;28;20037;-72